| time (UTC) | temp C | wind direction | speed KPH | gust KPH | rain 1hr cm | rain 24hr cm | rain mn cm | humidity % | barometer mb |
| 20260906235417 | 18 | 270 | 9.7 | 14.5 | 0.00 | 0.00 | 0.00 | 71 | 1014.7 |
| 20260906234420 | 18 | 320 | 8.0 | 12.9 | 0.00 | 0.00 | 0.00 | 70 | 1014.3 |
| 20260906233423 | 19 | 329 | 9.7 | 16.1 | 0.00 | 0.00 | 0.00 | 69 | 1013.5 |
| 20260906232425 | 19 | 3 | 9.7 | 14.5 | 0.00 | 0.00 | 0.00 | 67 | 1013.7 |
| 20260906231428 | 20 | 344 | 9.7 | 11.3 | 0.00 | 0.00 | 0.00 | 67 | 1013.7 |
| 20260906230431 | 20 | 347 | 8.0 | 12.9 | 0.00 | 0.00 | 0.00 | 66 | 1014.0 |
| 20260906225416 | 20 | 332 | 9.7 | 14.5 | 0.00 | 0.00 | 0.00 | 65 | 1014.3 |
| 20260906224418 | 20 | 355 | 12.9 | 16.1 | 0.00 | 0.00 | 0.00 | 64 | 1014.6 |
| 20260906223421 | 21 | 356 | 14.5 | 17.7 | 0.00 | 0.00 | 0.00 | 63 | 1014.5 |
| 20260906222423 | 21 | 232 | 6.4 | 9.7 | 0.00 | 0.00 | 0.00 | 61 | 1014.5 |
| 20260906221426 | 22 | 350 | 9.7 | 20.9 | 0.00 | 0.00 | 0.00 | 60 | 1014.5 |
| 20260906220429 | 23 | 24 | 11.3 | 14.5 | 0.00 | 0.00 | 0.00 | 57 | 1014.7 |
| 20260906215432 | 25 | 332 | 11.3 | 14.5 | 0.00 | 0.00 | 0.00 | 53 | 1014.8 |
| 20260906214417 | 25 | 340 | 12.9 | 16.1 | 0.00 | 0.00 | 0.00 | 54 | 1014.9 |
| 20260906213439 | 25 | 290 | 9.7 | 14.5 | 0.00 | 0.00 | 0.00 | 54 | 1015.2 |
| 20260906212422 | 25 | 27 | 6.4 | 8.0 | 0.00 | 0.00 | 0.00 | 54 | 1015.4 |
| 20260906211419 | 24 | 3 | 9.7 | 11.3 | 0.00 | 0.00 | 0.00 | 54 | 1015.4 |
| 20260906210415 | 24 | 312 | 6.4 | 6.4 | 0.00 | 0.00 | 0.00 | 55 | 1015.4 |
| 20260906205430 | 24 | 209 | 6.4 | 8.0 | 0.00 | 0.00 | 0.00 | 55 | 1015.8 |
| 20260906204433 | 23 | 103 | 3.2 | 6.4 | 0.00 | 0.00 | 0.00 | 56 | 1015.9 |
| 20260906203417 | 24 | 303 | 6.4 | 9.7 | 0.00 | 0.00 | 0.00 | 55 | 1016.0 |
| 20260906202419 | 23 | 23 | 3.2 | 4.8 | 0.00 | 0.00 | 0.00 | 56 | 1016.1 |
| 20260906201421 | 25 | 308 | 4.8 | 9.7 | 0.00 | 0.00 | 0.00 | 54 | 1016.1 |
| 20260906200444 | 23 | 292 | 4.8 | 6.4 | 0.00 | 0.00 | 0.00 | 57 | 1016.5 |
| 20260906195426 | 23 | 82 | 4.8 | 6.4 | 0.00 | 0.00 | 0.00 | 59 | 1016.6 |
| 20260906194429 | 22 | 266 | 6.4 | 8.0 | 0.00 | 0.00 | 0.00 | 58 | 1016.9 |
| 20260906193431 | 22 | 245 | 4.8 | 8.0 | 0.00 | 0.00 | 0.00 | 58 | 1016.9 |
| 20260906192436 | 21 | 182 | 3.2 | 6.4 | 0.00 | 0.00 | 0.00 | 61 | 1017.1 |
| 20260906191438 | 22 | 281 | 3.2 | 6.4 | 0.00 | 0.00 | 0.00 | 59 | 1017.1 |
| 20260906190421 | 21 | 225 | 3.2 | 4.8 | 0.00 | 0.00 | 0.00 | 61 | 1017.3 |
| 20260906185424 | 21 | 179 | 4.8 | 6.4 | 0.00 | 0.00 | 0.00 | 61 | 1017.4 |
| 20260906184426 | 22 | 317 | 6.4 | 9.7 | 0.00 | 0.00 | 0.00 | 60 | 1017.7 |
| 20260906183423 | 21 | 269 | 4.8 | 8.0 | 0.00 | 0.00 | 0.00 | 62 | 1018.0 |
| 20260906182420 | 21 | 332 | 3.2 | 6.4 | 0.00 | 0.00 | 0.00 | 60 | 1018.2 |
| 20260906181417 | 21 | 338 | 4.8 | 6.4 | 0.00 | 0.00 | 0.00 | 62 | 1018.2 |
| 20260906180432 | 21 | 285 | 4.8 | 6.4 | 0.00 | 0.00 | 0.00 | 61 | 1018.4 |
| 20260906175417 | 20 | 50 | 4.8 | 6.4 | 0.00 | 0.00 | 0.00 | 64 | 1018.6 |
| 20260906174419 | 20 | 108 | 4.8 | 8.0 | 0.00 | 0.00 | 0.00 | 64 | 1018.9 |
| 20260906173422 | 21 | 334 | 6.4 | 6.4 | 0.00 | 0.00 | 0.00 | 62 | 1019.1 |
| 20260906172445 | 20 | 340 | 4.8 | 6.4 | 0.00 | 0.00 | 0.00 | 63 | 1019.2 |
| 20260906171427 | 21 | 300 | 6.4 | 9.7 | 0.00 | 0.00 | 0.00 | 63 | 1019.3 |
| 20260906170430 | 20 | 264 | 3.2 | 6.4 | 0.00 | 0.00 | 0.00 | 64 | 1019.3 |
| 20260906165433 | 19 | 86 | 1.6 | 6.4 | 0.00 | 0.00 | 0.00 | 68 | 1019.5 |
| 20260906164417 | 19 | 97 | 6.4 | 8.0 | 0.00 | 0.00 | 0.00 | 68 | 1019.6 |
| 20260906163419 | 19 | 62 | 6.4 | 6.4 | 0.00 | 0.00 | 0.00 | 70 | 1019.8 |
| 20260906162421 | 19 | 287 | 4.8 | 6.4 | 0.00 | 0.00 | 0.00 | 67 | 1020.1 |
| 20260906161444 | 19 | 314 | 8.0 | 11.3 | 0.00 | 0.00 | 0.00 | 68 | 1020.1 |
| 20260906160427 | 18 | 317 | 6.4 | 8.0 | 0.00 | 0.00 | 0.00 | 71 | 1020.2 |
| 20260906155430 | 18 | 4 | 6.4 | 8.0 | 0.00 | 0.00 | 0.00 | 72 | 1020.4 |
| 20260906154426 | 18 | 281 | 1.6 | 4.8 | 0.00 | 0.00 | 0.00 | 73 | 1020.5 |
| 20260906153457 | 17 | 303 | 4.8 | 8.0 | 0.00 | 0.00 | 0.00 | 74 | 1020.8 |
| 20260906152420 | 18 | 317 | 4.8 | 6.4 | 0.00 | 0.00 | 0.00 | 74 | 1020.8 |
| 20260906151416 | 18 | 255 | 8.0 | 11.3 | 0.00 | 0.00 | 0.00 | 74 | 1020.8 |
| 20260906150445 | 17 | 333 | 4.8 | 8.0 | 0.00 | 0.00 | 0.00 | 76 | 1021.0 |
| 20260906145428 | 16 | 256 | 3.2 | 4.8 | 0.00 | 0.00 | 0.00 | 80 | 1021.0 |
| 20260906144431 | 16 | 168 | 3.2 | 4.8 | 0.00 | 0.00 | 0.00 | 82 | 1021.0 |
| 20260906143415 | 15 | 212 | 3.2 | 4.8 | 0.00 | 0.00 | 0.00 | 85 | 1021.0 |
| 20260906142418 | 15 | 189 | 1.6 | 3.2 | 0.00 | 0.00 | 0.00 | 85 | 1021.2 |
| 20260906141420 | 15 | 212 | 3.2 | 3.2 | 0.00 | 0.00 | 0.00 | 86 | 1021.4 |
| 20260906140423 | 14 | 0.0 | 0.0 | 0.00 | 0.00 | 0.00 | 88 | 1021.4 | |
| 20260906135426 | 13 | 203 | 1.6 | 4.8 | 0.00 | 0.00 | 0.00 | 90 | 1021.4 |
| 20260906134429 | 13 | 0.0 | 0.0 | 0.00 | 0.00 | 0.00 | 90 | 1021.4 | |
| 20260906133451 | 13 | 0.0 | 0.0 | 0.00 | 0.00 | 0.00 | 90 | 1021.2 | |
| 20260906132415 | 13 | 0.0 | 0.0 | 0.00 | 0.00 | 0.00 | 90 | 1021.5 | |
| 20260906131418 | 13 | 0.0 | 0.0 | 0.00 | 0.00 | 0.00 | 90 | 1021.5 | |
| 20260906130420 | 13 | 0.0 | 0.0 | 0.00 | 0.00 | 0.00 | 90 | 1021.7 | |
| 20260906125423 | 13 | 270 | 0.0 | 3.2 | 0.00 | 0.00 | 0.00 | 89 | 1021.7 |
| 20260906124425 | 13 | 278 | 1.6 | 3.2 | 0.00 | 0.00 | 0.00 | 89 | 1021.7 |
| 20260906123423 | 13 | 293 | 1.6 | 3.2 | 0.00 | 0.00 | 0.00 | 89 | 1021.5 |
| 20260906122419 | 13 | 328 | 1.6 | 6.4 | 0.00 | 0.00 | 0.00 | 89 | 1021.2 |
| 20260906121416 | 13 | 0.0 | 0.0 | 0.00 | 0.00 | 0.00 | 88 | 1021.2 | |
| 20260906120438 | 13 | 1.6 | 3.2 | 0.00 | 0.00 | 0.00 | 87 | 1021.6 | |
| 20260906115420 | 13 | 338 | 1.6 | 3.2 | 0.00 | 0.00 | 0.00 | 86 | 1021.5 |
| 20260906114422 | 14 | 14 | 1.6 | 3.2 | 0.00 | 0.00 | 0.00 | 86 | 1021.6 |
| 20260906113425 | 14 | 349 | 6.4 | 9.7 | 0.00 | 0.00 | 0.00 | 85 | 1021.9 |
| 20260906112428 | 14 | 286 | 4.8 | 8.0 | 0.00 | 0.00 | 0.00 | 84 | 1021.4 |
| 20260906111431 | 14 | 349 | 4.8 | 8.0 | 0.00 | 0.00 | 0.00 | 84 | 1021.4 |
| 20260906110415 | 14 | 314 | 6.4 | 9.7 | 0.00 | 0.00 | 0.00 | 84 | 1021.4 |
| 20260906105438 | 14 | 339 | 6.4 | 11.3 | 0.00 | 0.00 | 0.00 | 84 | 1021.2 |
| 20260906104420 | 14 | 296 | 6.4 | 8.0 | 0.00 | 0.00 | 0.00 | 84 | 1021.3 |
| 20260906103422 | 14 | 298 | 11.3 | 16.1 | 0.00 | 0.00 | 0.00 | 85 | 1020.8 |
| 20260906102425 | 14 | 270 | 9.7 | 12.9 | 0.00 | 0.00 | 0.00 | 86 | 1020.5 |
| 20260906101427 | 13 | 308 | 12.9 | 16.1 | 0.00 | 0.00 | 0.00 | 86 | 1020.5 |
| 20260906100450 | 13 | 288 | 9.7 | 12.9 | 0.00 | 0.00 | 0.00 | 86 | 1020.2 |
| 20260906095426 | 13 | 261 | 8.0 | 11.3 | 0.00 | 0.00 | 0.00 | 86 | 1019.9 |
| 20260906094416 | 13 | 277 | 8.0 | 9.7 | 0.00 | 0.00 | 0.00 | 86 | 1019.6 |
| 20260906093459 | 13 | 228 | 4.8 | 4.8 | 0.00 | 0.00 | 0.00 | 86 | 1019.3 |
| 20260906092415 | 13 | 293 | 1.6 | 4.8 | 0.00 | 0.00 | 0.00 | 86 | 1019.3 |
| 20260906091443 | 13 | 324 | 3.2 | 6.4 | 0.00 | 0.00 | 0.00 | 87 | 1019.3 |
| 20260906090425 | 13 | 0.0 | 0.0 | 0.00 | 0.00 | 0.00 | 87 | 1019.3 | |
| 20260906085448 | 13 | 0.0 | 0.0 | 0.00 | 0.00 | 0.00 | 87 | 1019.6 | |
| 20260906084430 | 13 | 293 | 1.6 | 4.8 | 0.00 | 0.00 | 0.00 | 88 | 1019.6 |
| 20260906083432 | 12 | 262 | 3.2 | 6.4 | 0.00 | 0.00 | 0.00 | 89 | 1019.6 |
| 20260906082416 | 12 | 0.0 | 0.0 | 0.00 | 0.00 | 0.00 | 88 | 1019.8 | |
| 20260906081419 | 12 | 0.0 | 3.2 | 0.00 | 0.00 | 0.00 | 88 | 1019.8 | |
| 20260906080421 | 12 | 250 | 3.2 | 4.8 | 0.00 | 0.00 | 0.00 | 87 | 1019.9 |
| 20260906075424 | 13 | 212 | 3.2 | 4.8 | 0.00 | 0.00 | 0.00 | 86 | 1020.1 |
| 20260906074426 | 13 | 270 | 1.6 | 6.4 | 0.00 | 0.00 | 0.00 | 86 | 1020.1 |
| 20260906073429 | 13 | 248 | 0.0 | 1.6 | 0.00 | 0.00 | 0.00 | 86 | 1020.2 |
| 20260906072431 | 13 | 293 | 1.6 | 3.2 | 0.00 | 0.00 | 0.00 | 85 | 1020.4 |
| 20260906071436 | 13 | 291 | 6.4 | 9.7 | 0.00 | 0.00 | 0.00 | 85 | 1020.4 |
| 20260906070418 | 13 | 283 | 6.4 | 11.3 | 0.00 | 0.00 | 0.00 | 85 | 1020.5 |
| 20260906065420 | 13 | 293 | 1.6 | 3.2 | 0.00 | 0.00 | 0.00 | 84 | 1020.8 |
| 20260906064417 | 13 | 270 | 3.2 | 3.2 | 0.00 | 0.00 | 0.00 | 83 | 1020.8 |
| 20260906063445 | 14 | 1.6 | 4.8 | 0.00 | 0.00 | 0.00 | 83 | 1021.0 | |
| 20260906062428 | 14 | 270 | 3.2 | 8.0 | 0.00 | 0.00 | 0.00 | 82 | 1021.0 |
| 20260906061450 | 14 | 314 | 1.6 | 6.4 | 0.00 | 0.00 | 0.00 | 81 | 1021.0 |
| 20260906060432 | 14 | 323 | 6.4 | 11.3 | 0.00 | 0.00 | 0.00 | 81 | 1021.0 |
| 20260906055416 | 14 | 315 | 3.2 | 6.4 | 0.00 | 0.00 | 0.00 | 80 | 1021.2 |
| 20260906054419 | 15 | 90 | 0.0 | 3.2 | 0.00 | 0.00 | 0.00 | 78 | 1021.3 |
| 20260906053422 | 15 | 332 | 4.8 | 8.0 | 0.00 | 0.00 | 0.00 | 77 | 1021.4 |
| 20260906052419 | 15 | 146 | 4.8 | 4.8 | 0.00 | 0.00 | 0.00 | 76 | 1021.4 |
| 20260906051421 | 15 | 0.0 | 0.0 | 0.00 | 0.00 | 0.00 | 75 | 1021.4 | |
| 20260906050445 | 16 | 360 | 3.2 | 6.4 | 0.00 | 0.00 | 0.00 | 73 | 1021.4 |
| 20260906045427 | 16 | 312 | 4.8 | 8.0 | 0.00 | 0.00 | 0.00 | 71 | 1021.2 |
| 20260906044450 | 16 | 31 | 8.0 | 12.9 | 0.00 | 0.00 | 0.00 | 70 | 1021.2 |
| 20260906043432 | 16 | 283 | 8.0 | 14.5 | 0.00 | 0.00 | 0.00 | 70 | 1020.8 |
| 20260906042417 | 16 | 333 | 6.4 | 8.0 | 0.00 | 0.00 | 0.00 | 69 | 1020.8 |
| 20260906041420 | 16 | 313 | 8.0 | 16.1 | 0.00 | 0.00 | 0.00 | 67 | 1020.8 |
| 20260906040423 | 16 | 277 | 9.7 | 11.3 | 0.00 | 0.00 | 0.00 | 66 | 1020.8 |
| 20260906035419 | 16 | 301 | 12.9 | 14.5 | 0.00 | 0.00 | 0.00 | 65 | 1020.8 |
| 20260906034416 | 17 | 298 | 6.4 | 14.5 | 0.00 | 0.00 | 0.00 | 66 | 1020.5 |
| 20260906033431 | 17 | 279 | 8.0 | 9.7 | 0.00 | 0.00 | 0.00 | 66 | 1019.9 |
| 20260906032415 | 17 | 301 | 12.9 | 14.5 | 0.00 | 0.00 | 0.00 | 67 | 1019.6 |
| 20260906031438 | 17 | 346 | 14.5 | 16.1 | 0.00 | 0.00 | 0.00 | 66 | 1019.6 |
| 20260906030420 | 17 | 291 | 9.7 | 14.5 | 0.00 | 0.00 | 0.00 | 65 | 1019.1 |
| 20260906025423 | 18 | 284 | 12.9 | 24.1 | 0.00 | 0.00 | 0.00 | 61 | 1018.7 |
| 20260906024426 | 18 | 299 | 12.9 | 17.7 | 0.00 | 0.00 | 0.00 | 59 | 1018.5 |
| 20260906023428 | 18 | 288 | 8.0 | 11.3 | 0.00 | 0.00 | 0.00 | 60 | 1018.4 |
| 20260906022431 | 18 | 287 | 11.3 | 17.7 | 0.00 | 0.00 | 0.00 | 60 | 1018.2 |
| 20260906021416 | 18 | 270 | 11.3 | 16.1 | 0.00 | 0.00 | 0.00 | 61 | 1018.2 |
| 20260906020418 | 18 | 302 | 12.9 | 16.1 | 0.00 | 0.00 | 0.00 | 60 | 1018.0 |
| 20260906015421 | 19 | 289 | 9.7 | 12.9 | 0.00 | 0.00 | 0.00 | 57 | 1018.0 |
| 20260906014444 | 19 | 23 | 1.6 | 4.8 | 0.00 | 0.00 | 0.00 | 57 | 1017.8 |
| 20260906013427 | 19 | 270 | 6.4 | 9.7 | 0.00 | 0.00 | 0.00 | 57 | 1017.7 |
| 20260906012429 | 19 | 270 | 6.4 | 9.7 | 0.00 | 0.00 | 0.00 | 58 | 1017.6 |
| 20260906011426 | 19 | 293 | 4.8 | 9.7 | 0.00 | 0.00 | 0.00 | 58 | 1017.6 |
| 20260906010457 | 20 | 252 | 6.4 | 8.0 | 0.00 | 0.00 | 0.00 | 57 | 1017.4 |
| 20260906005419 | 20 | 312 | 6.4 | 9.7 | 0.00 | 0.00 | 0.00 | 56 | 1017.5 |
| 20260906004416 | 21 | 333 | 6.4 | 8.0 | 0.00 | 0.00 | 0.00 | 54 | 1017.5 |
| 20260906003425 | 22 | 334 | 11.3 | 14.5 | 0.00 | 0.00 | 0.00 | 52 | 1017.6 |
| 20260906002427 | 23 | 301 | 11.3 | 14.5 | 0.00 | 0.00 | 0.00 | 51 | 1017.5 |
| 20260906001430 | 23 | 319 | 8.0 | 11.3 | 0.00 | 0.00 | 0.00 | 50 | 1017.5 |
| 20260906000415 | 24 | 316 | 6.4 | 8.0 | 0.00 | 0.00 | 0.00 | 50 | 1017.6 |